sensor_id;sensor_type;location;lat;lon;timestamp;temperature;humidity
67870;DHT22;54673;52.262;6.830;2023-06-26T00:01:50;27.60;49.50
67870;DHT22;54673;52.262;6.830;2023-06-26T00:04:16;27.70;49.50
67870;DHT22;54673;52.262;6.830;2023-06-26T00:06:42;27.60;49.40
67870;DHT22;54673;52.262;6.830;2023-06-26T00:09:07;27.70;49.40
67870;DHT22;54673;52.262;6.830;2023-06-26T00:11:33;27.70;49.40
67870;DHT22;54673;52.262;6.830;2023-06-26T00:14:02;27.60;49.40
67870;DHT22;54673;52.262;6.830;2023-06-26T00:16:28;27.60;49.30
67870;DHT22;54673;52.262;6.830;2023-06-26T00:18:53;27.70;49.30
67870;DHT22;54673;52.262;6.830;2023-06-26T00:21:19;27.60;49.30
67870;DHT22;54673;52.262;6.830;2023-06-26T00:23:45;27.70;49.40
67870;DHT22;54673;52.262;6.830;2023-06-26T00:26:12;27.60;49.30
67870;DHT22;54673;52.262;6.830;2023-06-26T00:28:37;27.60;49.40
67870;DHT22;54673;52.262;6.830;2023-06-26T00:31:03;27.60;49.50
67870;DHT22;54673;52.262;6.830;2023-06-26T00:33:28;27.60;49.50
67870;DHT22;54673;52.262;6.830;2023-06-26T00:35:54;27.60;49.50
67870;DHT22;54673;52.262;6.830;2023-06-26T00:38:19;27.60;49.50
67870;DHT22;54673;52.262;6.830;2023-06-26T00:40:45;27.60;49.40
67870;DHT22;54673;52.262;6.830;2023-06-26T00:43:11;27.60;49.50
67870;DHT22;54673;52.262;6.830;2023-06-26T00:45:36;27.50;49.40
67870;DHT22;54673;52.262;6.830;2023-06-26T00:48:03;27.60;49.50
67870;DHT22;54673;52.262;6.830;2023-06-26T00:50:28;27.50;49.40
67870;DHT22;54673;52.262;6.830;2023-06-26T00:52:54;27.50;49.50
67870;DHT22;54673;52.262;6.830;2023-06-26T00:55:26;27.50;49.50
67870;DHT22;54673;52.262;6.830;2023-06-26T00:57:52;27.60;49.40
67870;DHT22;54673;52.262;6.830;2023-06-26T01:00:18;27.60;49.40
67870;DHT22;54673;52.262;6.830;2023-06-26T01:02:44;27.60;49.40
67870;DHT22;54673;52.262;6.830;2023-06-26T01:05:10;27.60;49.30
67870;DHT22;54673;52.262;6.830;2023-06-26T01:07:38;27.60;49.40
67870;DHT22;54673;52.262;6.830;2023-06-26T01:10:06;27.60;49.30
67870;DHT22;54673;52.262;6.830;2023-06-26T01:12:33;27.60;49.30
67870;DHT22;54673;52.262;6.830;2023-06-26T01:14:59;27.60;49.30
67870;DHT22;54673;52.262;6.830;2023-06-26T01:17:29;27.50;49.20
67870;DHT22;54673;52.262;6.830;2023-06-26T01:19:58;27.50;49.10
67870;DHT22;54673;52.262;6.830;2023-06-26T01:22:56;27.50;49.00
67870;DHT22;54673;52.262;6.830;2023-06-26T01:28:16;27.50;48.90
67870;DHT22;54673;52.262;6.830;2023-06-26T01:30:44;27.50;48.90
67870;DHT22;54673;52.262;6.830;2023-06-26T01:33:11;27.50;48.90
67870;DHT22;54673;52.262;6.830;2023-06-26T01:35:38;27.50;48.80
67870;DHT22;54673;52.262;6.830;2023-06-26T01:38:18;27.90;49.00
67870;DHT22;54673;52.262;6.830;2023-06-26T01:40:44;27.50;48.80
67870;DHT22;54673;52.262;6.830;2023-06-26T01:46:11;27.50;48.60
67870;DHT22;54673;52.262;6.830;2023-06-26T01:48:47;27.50;48.60
67870;DHT22;54673;52.262;6.830;2023-06-26T01:51:17;27.50;48.50
67870;DHT22;54673;52.262;6.830;2023-06-26T01:53:46;27.50;48.50
67870;DHT22;54673;52.262;6.830;2023-06-26T01:56:17;27.50;48.40
67870;DHT22;54673;52.262;6.830;2023-06-26T01:58:46;27.50;48.20
67870;DHT22;54673;52.262;6.830;2023-06-26T02:01:15;27.50;48.20
67870;DHT22;54673;52.262;6.830;2023-06-26T02:03:41;27.50;48.20
67870;DHT22;54673;52.262;6.830;2023-06-26T02:06:07;27.50;48.20
67870;DHT22;54673;52.262;6.830;2023-06-26T02:08:33;27.50;48.20
67870;DHT22;54673;52.262;6.830;2023-06-26T02:10:58;27.50;48.20
67870;DHT22;54673;52.262;6.830;2023-06-26T02:13:24;27.50;48.20
67870;DHT22;54673;52.262;6.830;2023-06-26T02:15:49;27.50;48.20
67870;DHT22;54673;52.262;6.830;2023-06-26T02:18:15;27.50;48.20
67870;DHT22;54673;52.262;6.830;2023-06-26T02:20:41;27.50;48.00
67870;DHT22;54673;52.262;6.830;2023-06-26T02:23:06;27.50;48.00
67870;DHT22;54673;52.262;6.830;2023-06-26T02:25:32;27.50;47.90
67870;DHT22;54673;52.262;6.830;2023-06-26T02:27:57;27.50;47.90
67870;DHT22;54673;52.262;6.830;2023-06-26T02:30:23;27.50;47.90
67870;DHT22;54673;52.262;6.830;2023-06-26T02:32:48;27.50;47.90
67870;DHT22;54673;52.262;6.830;2023-06-26T02:35:14;27.50;47.80
67870;DHT22;54673;52.262;6.830;2023-06-26T02:37:39;27.50;47.50
67870;DHT22;54673;52.262;6.830;2023-06-26T02:40:05;27.50;47.50
67870;DHT22;54673;52.262;6.830;2023-06-26T02:42:33;27.50;47.60
67870;DHT22;54673;52.262;6.830;2023-06-26T02:44:58;27.50;47.50
67870;DHT22;54673;52.262;6.830;2023-06-26T02:47:24;27.50;47.60
67870;DHT22;54673;52.262;6.830;2023-06-26T02:49:49;27.50;47.60
67870;DHT22;54673;52.262;6.830;2023-06-26T02:52:15;27.50;47.70
67870;DHT22;54673;52.262;6.830;2023-06-26T02:54:40;27.50;47.70
67870;DHT22;54673;52.262;6.830;2023-06-26T02:57:06;27.50;47.60
67870;DHT22;54673;52.262;6.830;2023-06-26T02:59:32;27.40;47.60
67870;DHT22;54673;52.262;6.830;2023-06-26T03:01:58;27.40;47.60
67870;DHT22;54673;52.262;6.830;2023-06-26T03:04:24;27.40;47.70
67870;DHT22;54673;52.262;6.830;2023-06-26T03:06:49;27.40;47.70
67870;DHT22;54673;52.262;6.830;2023-06-26T03:09:15;27.40;47.70
67870;DHT22;54673;52.262;6.830;2023-06-26T03:11:42;27.40;47.70
67870;DHT22;54673;52.262;6.830;2023-06-26T03:14:07;27.40;47.80
67870;DHT22;54673;52.262;6.830;2023-06-26T03:16:33;27.40;47.70
67870;DHT22;54673;52.262;6.830;2023-06-26T03:18:58;27.40;47.60
67870;DHT22;54673;52.262;6.830;2023-06-26T03:21:24;27.40;47.60
67870;DHT22;54673;52.262;6.830;2023-06-26T03:23:49;27.40;47.30
67870;DHT22;54673;52.262;6.830;2023-06-26T03:26:15;27.40;47.20
67870;DHT22;54673;52.262;6.830;2023-06-26T03:28:41;27.40;46.90
67870;DHT22;54673;52.262;6.830;2023-06-26T03:31:07;27.40;46.80
67870;DHT22;54673;52.262;6.830;2023-06-26T03:33:33;27.40;46.60
67870;DHT22;54673;52.262;6.830;2023-06-26T03:35:58;27.40;46.70
67870;DHT22;54673;52.262;6.830;2023-06-26T03:38:24;27.40;46.70
67870;DHT22;54673;52.262;6.830;2023-06-26T03:40:51;27.40;46.60
67870;DHT22;54673;52.262;6.830;2023-06-26T03:43:17;27.40;46.50
67870;DHT22;54673;52.262;6.830;2023-06-26T03:45:43;27.40;46.40
67870;DHT22;54673;52.262;6.830;2023-06-26T03:48:08;27.40;46.30
67870;DHT22;54673;52.262;6.830;2023-06-26T03:50:34;27.40;46.20
67870;DHT22;54673;52.262;6.830;2023-06-26T03:52:59;27.30;46.10
67870;DHT22;54673;52.262;6.830;2023-06-26T03:55:25;27.30;46.20
67870;DHT22;54673;52.262;6.830;2023-06-26T03:57:50;27.30;46.30
67870;DHT22;54673;52.262;6.830;2023-06-26T04:00:16;27.30;46.30
67870;DHT22;54673;52.262;6.830;2023-06-26T04:02:42;27.20;46.20
67870;DHT22;54673;52.262;6.830;2023-06-26T04:05:08;27.20;46.30
67870;DHT22;54673;52.262;6.830;2023-06-26T04:07:33;27.20;46.20
67870;DHT22;54673;52.262;6.830;2023-06-26T04:10:00;27.20;46.40
67870;DHT22;54673;52.262;6.830;2023-06-26T04:12:25;27.20;46.40
67870;DHT22;54673;52.262;6.830;2023-06-26T04:14:51;27.20;47.30
67870;DHT22;54673;52.262;6.830;2023-06-26T04:17:16;27.20;46.50
67870;DHT22;54673;52.262;6.830;2023-06-26T04:19:42;27.20;46.50
67870;DHT22;54673;52.262;6.830;2023-06-26T04:22:08;27.10;46.60
67870;DHT22;54673;52.262;6.830;2023-06-26T04:24:33;27.10;46.70
67870;DHT22;54673;52.262;6.830;2023-06-26T04:26:59;27.10;46.70
67870;DHT22;54673;52.262;6.830;2023-06-26T04:29:27;27.10;46.70
67870;DHT22;54673;52.262;6.830;2023-06-26T04:31:53;27.10;46.70
67870;DHT22;54673;52.262;6.830;2023-06-26T04:34:27;27.10;46.80
67870;DHT22;54673;52.262;6.830;2023-06-26T04:36:52;27.10;46.80
67870;DHT22;54673;52.262;6.830;2023-06-26T04:39:18;27.10;46.90
67870;DHT22;54673;52.262;6.830;2023-06-26T04:41:44;27.10;46.80
67870;DHT22;54673;52.262;6.830;2023-06-26T04:44:10;27.10;46.80
67870;DHT22;54673;52.262;6.830;2023-06-26T04:46:37;27.10;46.80
67870;DHT22;54673;52.262;6.830;2023-06-26T04:49:09;27.10;46.90
67870;DHT22;54673;52.262;6.830;2023-06-26T04:51:35;27.10;47.10
67870;DHT22;54673;52.262;6.830;2023-06-26T04:54:09;27.10;47.10
67870;DHT22;54673;52.262;6.830;2023-06-26T04:56:36;27.00;47.10
67870;DHT22;54673;52.262;6.830;2023-06-26T04:59:02;27.10;47.10
67870;DHT22;54673;52.262;6.830;2023-06-26T05:01:28;27.10;47.70
67870;DHT22;54673;52.262;6.830;2023-06-26T05:03:56;27.10;47.10
67870;DHT22;54673;52.262;6.830;2023-06-26T05:06:22;27.10;47.10
67870;DHT22;54673;52.262;6.830;2023-06-26T05:08:48;27.10;47.20
67870;DHT22;54673;52.262;6.830;2023-06-26T05:11:13;27.10;47.20
67870;DHT22;54673;52.262;6.830;2023-06-26T05:13:39;27.10;47.40
67870;DHT22;54673;52.262;6.830;2023-06-26T05:16:05;27.00;47.50
67870;DHT22;54673;52.262;6.830;2023-06-26T05:18:31;27.00;47.50
67870;DHT22;54673;52.262;6.830;2023-06-26T05:20:57;26.90;47.70
67870;DHT22;54673;52.262;6.830;2023-06-26T05:23:25;26.80;47.80
67870;DHT22;54673;52.262;6.830;2023-06-26T05:25:52;26.80;47.90
67870;DHT22;54673;52.262;6.830;2023-06-26T05:28:17;26.60;47.70
67870;DHT22;54673;52.262;6.830;2023-06-26T05:30:43;26.90;47.90
67870;DHT22;54673;52.262;6.830;2023-06-26T05:33:11;26.80;47.90
67870;DHT22;54673;52.262;6.830;2023-06-26T05:35:37;26.80;48.00
67870;DHT22;54673;52.262;6.830;2023-06-26T05:38:03;26.70;48.20
67870;DHT22;54673;52.262;6.830;2023-06-26T05:40:29;26.70;48.20
67870;DHT22;54673;52.262;6.830;2023-06-26T05:42:55;26.70;48.20
67870;DHT22;54673;52.262;6.830;2023-06-26T05:45:20;26.80;48.20
67870;DHT22;54673;52.262;6.830;2023-06-26T05:47:46;26.80;48.20
67870;DHT22;54673;52.262;6.830;2023-06-26T05:50:12;26.80;48.40
67870;DHT22;54673;52.262;6.830;2023-06-26T05:52:38;26.70;48.30
67870;DHT22;54673;52.262;6.830;2023-06-26T05:55:04;26.70;48.30
67870;DHT22;54673;52.262;6.830;2023-06-26T05:57:30;26.60;48.30
67870;DHT22;54673;52.262;6.830;2023-06-26T05:59:57;26.60;48.50
67870;DHT22;54673;52.262;6.830;2023-06-26T06:02:22;26.50;48.60
67870;DHT22;54673;52.262;6.830;2023-06-26T06:04:48;26.50;48.80
67870;DHT22;54673;52.262;6.830;2023-06-26T06:07:14;26.50;48.80
67870;DHT22;54673;52.262;6.830;2023-06-26T06:09:39;26.50;48.70
67870;DHT22;54673;52.262;6.830;2023-06-26T06:12:06;26.60;48.80
67870;DHT22;54673;52.262;6.830;2023-06-26T06:14:34;26.50;48.90
67870;DHT22;54673;52.262;6.830;2023-06-26T06:17:00;26.40;49.00
67870;DHT22;54673;52.262;6.830;2023-06-26T06:19:26;26.40;49.00
67870;DHT22;54673;52.262;6.830;2023-06-26T06:21:52;26.30;49.30
67870;DHT22;54673;52.262;6.830;2023-06-26T06:24:18;26.30;49.50
67870;DHT22;54673;52.262;6.830;2023-06-26T06:26:44;26.20;49.70
67870;DHT22;54673;52.262;6.830;2023-06-26T06:29:09;26.20;50.80
67870;DHT22;54673;52.262;6.830;2023-06-26T06:31:35;26.20;50.00
67870;DHT22;54673;52.262;6.830;2023-06-26T06:34:01;26.30;50.00
67870;DHT22;54673;52.262;6.830;2023-06-26T06:36:26;26.30;49.90
67870;DHT22;54673;52.262;6.830;2023-06-26T06:38:52;26.30;50.00
67870;DHT22;54673;52.262;6.830;2023-06-26T06:41:19;26.30;49.90
67870;DHT22;54673;52.262;6.830;2023-06-26T06:43:44;26.30;50.00
67870;DHT22;54673;52.262;6.830;2023-06-26T06:46:10;26.30;49.90
67870;DHT22;54673;52.262;6.830;2023-06-26T06:48:35;26.30;49.90
67870;DHT22;54673;52.262;6.830;2023-06-26T06:51:01;26.40;49.90
67870;DHT22;54673;52.262;6.830;2023-06-26T06:53:27;26.40;49.90
67870;DHT22;54673;52.262;6.830;2023-06-26T06:55:53;26.40;49.80
67870;DHT22;54673;52.262;6.830;2023-06-26T06:58:18;26.50;49.70
67870;DHT22;54673;52.262;6.830;2023-06-26T07:00:48;26.40;49.60
67870;DHT22;54673;52.262;6.830;2023-06-26T07:03:13;26.50;49.50
67870;DHT22;54673;52.262;6.830;2023-06-26T07:05:41;26.50;49.30
67870;DHT22;54673;52.262;6.830;2023-06-26T07:08:07;26.50;49.20
67870;DHT22;54673;52.262;6.830;2023-06-26T07:10:32;26.50;49.10
67870;DHT22;54673;52.262;6.830;2023-06-26T07:12:58;26.40;49.10
67870;DHT22;54673;52.262;6.830;2023-06-26T07:15:23;26.40;49.10
67870;DHT22;54673;52.262;6.830;2023-06-26T07:17:49;26.40;49.10
67870;DHT22;54673;52.262;6.830;2023-06-26T07:20:14;26.40;49.10
67870;DHT22;54673;52.262;6.830;2023-06-26T07:22:44;26.40;49.10
67870;DHT22;54673;52.262;6.830;2023-06-26T07:25:12;26.40;49.10
67870;DHT22;54673;52.262;6.830;2023-06-26T07:27:38;26.40;49.20
67870;DHT22;54673;52.262;6.830;2023-06-26T07:30:04;26.40;49.20
67870;DHT22;54673;52.262;6.830;2023-06-26T07:32:30;26.40;49.20
67870;DHT22;54673;52.262;6.830;2023-06-26T07:34:56;26.40;49.10
67870;DHT22;54673;52.262;6.830;2023-06-26T07:37:21;26.50;49.20
67870;DHT22;54673;52.262;6.830;2023-06-26T07:39:48;26.50;49.20
67870;DHT22;54673;52.262;6.830;2023-06-26T07:42:14;26.50;49.20
67870;DHT22;54673;52.262;6.830;2023-06-26T07:44:41;26.40;48.40
67870;DHT22;54673;52.262;6.830;2023-06-26T07:47:06;26.40;48.00
67870;DHT22;54673;52.262;6.830;2023-06-26T07:49:32;26.40;47.70
67870;DHT22;54673;52.262;6.830;2023-06-26T07:51:57;26.40;47.30
67870;DHT22;54673;52.262;6.830;2023-06-26T07:54:23;26.30;46.90
67870;DHT22;54673;52.262;6.830;2023-06-26T07:59:22;26.30;46.20
67870;DHT22;54673;52.262;6.830;2023-06-26T08:01:49;26.30;45.80
67870;DHT22;54673;52.262;6.830;2023-06-26T08:04:14;26.20;45.40
67870;DHT22;54673;52.262;6.830;2023-06-26T08:06:40;26.20;45.30
67870;DHT22;54673;52.262;6.830;2023-06-26T08:09:06;26.20;45.90
67870;DHT22;54673;52.262;6.830;2023-06-26T08:11:33;26.20;44.80
67870;DHT22;54673;52.262;6.830;2023-06-26T08:13:59;26.20;44.80
67870;DHT22;54673;52.262;6.830;2023-06-26T08:16:25;26.20;44.60
67870;DHT22;54673;52.262;6.830;2023-06-26T08:18:50;26.20;44.60
67870;DHT22;54673;52.262;6.830;2023-06-26T08:21:16;26.30;44.70
67870;DHT22;54673;52.262;6.830;2023-06-26T08:23:41;26.30;44.70
67870;DHT22;54673;52.262;6.830;2023-06-26T08:26:07;26.20;44.60
67870;DHT22;54673;52.262;6.830;2023-06-26T08:28:33;26.20;45.50
67870;DHT22;54673;52.262;6.830;2023-06-26T08:30:58;26.30;44.70
67870;DHT22;54673;52.262;6.830;2023-06-26T08:33:25;26.30;44.70
67870;DHT22;54673;52.262;6.830;2023-06-26T08:35:50;26.30;44.70
67870;DHT22;54673;52.262;6.830;2023-06-26T08:38:16;26.30;44.70
67870;DHT22;54673;52.262;6.830;2023-06-26T08:40:41;26.30;44.70
67870;DHT22;54673;52.262;6.830;2023-06-26T08:43:07;26.30;44.60
67870;DHT22;54673;52.262;6.830;2023-06-26T08:45:33;26.30;44.60
67870;DHT22;54673;52.262;6.830;2023-06-26T08:48:00;26.30;44.50
67870;DHT22;54673;52.262;6.830;2023-06-26T08:50:30;26.20;44.30
67870;DHT22;54673;52.262;6.830;2023-06-26T08:52:56;26.10;44.20
67870;DHT22;54673;52.262;6.830;2023-06-26T08:55:26;26.20;44.50
67870;DHT22;54673;52.262;6.830;2023-06-26T08:57:52;26.10;44.30
67870;DHT22;54673;52.262;6.830;2023-06-26T09:00:19;26.20;44.50
67870;DHT22;54673;52.262;6.830;2023-06-26T09:02:45;26.20;44.50
67870;DHT22;54673;52.262;6.830;2023-06-26T09:05:11;26.20;44.30
67870;DHT22;54673;52.262;6.830;2023-06-26T09:07:37;26.10;44.10
67870;DHT22;54673;52.262;6.830;2023-06-26T09:10:02;26.10;44.20
67870;DHT22;54673;52.262;6.830;2023-06-26T09:12:29;26.10;44.30
67870;DHT22;54673;52.262;6.830;2023-06-26T09:14:56;26.20;44.30
67870;DHT22;54673;52.262;6.830;2023-06-26T09:17:29;26.20;44.30
67870;DHT22;54673;52.262;6.830;2023-06-26T09:19:55;26.30;44.50
67870;DHT22;54673;52.262;6.830;2023-06-26T09:22:20;26.30;45.40
67870;DHT22;54673;52.262;6.830;2023-06-26T09:24:48;26.00;44.30
67870;DHT22;54673;52.262;6.830;2023-06-26T09:27:13;26.30;44.30
67870;DHT22;54673;52.262;6.830;2023-06-26T09:29:39;26.30;44.30
67870;DHT22;54673;52.262;6.830;2023-06-26T09:32:05;26.30;44.30
67870;DHT22;54673;52.262;6.830;2023-06-26T09:34:33;26.30;44.30
67870;DHT22;54673;52.262;6.830;2023-06-26T09:36:59;26.30;44.30
67870;DHT22;54673;52.262;6.830;2023-06-26T09:39:30;26.30;44.30
67870;DHT22;54673;52.262;6.830;2023-06-26T09:41:56;26.30;44.30
67870;DHT22;54673;52.262;6.830;2023-06-26T09:44:22;26.30;44.10
67870;DHT22;54673;52.262;6.830;2023-06-26T09:46:48;26.30;43.80
67870;DHT22;54673;52.262;6.830;2023-06-26T09:49:14;26.40;43.90
67870;DHT22;54673;52.262;6.830;2023-06-26T09:51:41;26.40;43.70
67870;DHT22;54673;52.262;6.830;2023-06-26T09:54:08;26.40;43.50
67870;DHT22;54673;52.262;6.830;2023-06-26T09:56:34;26.30;42.90
67870;DHT22;54673;52.262;6.830;2023-06-26T09:59:02;26.40;42.90
67870;DHT22;54673;52.262;6.830;2023-06-26T10:01:30;26.40;43.00
67870;DHT22;54673;52.262;6.830;2023-06-26T10:03:56;26.40;43.00
67870;DHT22;54673;52.262;6.830;2023-06-26T10:06:37;26.40;43.00
67870;DHT22;54673;52.262;6.830;2023-06-26T10:09:04;26.40;42.80
67870;DHT22;54673;52.262;6.830;2023-06-26T10:11:37;26.30;42.80
67870;DHT22;54673;52.262;6.830;2023-06-26T10:14:07;26.30;43.00
67870;DHT22;54673;52.262;6.830;2023-06-26T10:16:33;26.30;42.60
67870;DHT22;54673;52.262;6.830;2023-06-26T10:19:04;26.30;42.40
67870;DHT22;54673;52.262;6.830;2023-06-26T10:21:32;26.30;42.60
67870;DHT22;54673;52.262;6.830;2023-06-26T10:24:00;26.30;42.60
67870;DHT22;54673;52.262;6.830;2023-06-26T10:26:26;26.30;42.50
67870;DHT22;54673;52.262;6.830;2023-06-26T10:28:53;26.30;42.10
67870;DHT22;54673;52.262;6.830;2023-06-26T10:31:21;26.10;41.40
67870;DHT22;54673;52.262;6.830;2023-06-26T10:33:49;26.10;41.50
67870;DHT22;54673;52.262;6.830;2023-06-26T10:39:24;26.20;41.60
67870;DHT22;54673;52.262;6.830;2023-06-26T10:41:42;26.10;41.50
67870;DHT22;54673;52.262;6.830;2023-06-26T10:44:15;26.10;41.80
67870;DHT22;54673;52.262;6.830;2023-06-26T10:46:55;26.20;41.80
67870;DHT22;54673;52.262;6.830;2023-06-26T10:49:27;26.30;41.90
67870;DHT22;54673;52.262;6.830;2023-06-26T10:51:53;26.40;42.10
67870;DHT22;54673;52.262;6.830;2023-06-26T10:54:20;26.40;42.00
67870;DHT22;54673;52.262;6.830;2023-06-26T10:56:46;26.50;42.00
67870;DHT22;54673;52.262;6.830;2023-06-26T10:59:24;26.50;41.90
67870;DHT22;54673;52.262;6.830;2023-06-26T11:02:01;26.50;41.80
67870;DHT22;54673;52.262;6.830;2023-06-26T11:04:40;26.60;41.70
67870;DHT22;54673;52.262;6.830;2023-06-26T11:10:19;26.60;41.50
67870;DHT22;54673;52.262;6.830;2023-06-26T11:12:45;26.70;41.30
67870;DHT22;54673;52.262;6.830;2023-06-26T11:15:17;26.80;41.60
67870;DHT22;54673;52.262;6.830;2023-06-26T11:17:44;26.70;40.90
67870;DHT22;54673;52.262;6.830;2023-06-26T11:20:14;26.80;40.80
67870;DHT22;54673;52.262;6.830;2023-06-26T11:22:42;26.70;40.50
67870;DHT22;54673;52.262;6.830;2023-06-26T11:25:08;26.80;40.60
67870;DHT22;54673;52.262;6.830;2023-06-26T11:27:41;26.80;40.60
67870;DHT22;54673;52.262;6.830;2023-06-26T11:30:09;26.90;40.40
67870;DHT22;54673;52.262;6.830;2023-06-26T11:32:36;26.80;40.30
67870;DHT22;54673;52.262;6.830;2023-06-26T11:35:03;26.80;39.90
67870;DHT22;54673;52.262;6.830;2023-06-26T11:37:30;26.80;40.10
67870;DHT22;54673;52.262;6.830;2023-06-26T11:39:56;26.80;39.70
67870;DHT22;54673;52.262;6.830;2023-06-26T11:42:22;26.80;39.40
67870;DHT22;54673;52.262;6.830;2023-06-26T11:44:49;26.90;39.60
67870;DHT22;54673;52.262;6.830;2023-06-26T11:47:15;26.90;39.20
67870;DHT22;54673;52.262;6.830;2023-06-26T11:49:43;26.90;38.60
67870;DHT22;54673;52.262;6.830;2023-06-26T11:52:08;27.00;38.40
67870;DHT22;54673;52.262;6.830;2023-06-26T11:54:34;27.00;37.80
67870;DHT22;54673;52.262;6.830;2023-06-26T11:57:00;27.00;37.90
67870;DHT22;54673;52.262;6.830;2023-06-26T11:59:39;27.00;37.90
67870;DHT22;54673;52.262;6.830;2023-06-26T12:02:12;27.00;38.00
67870;DHT22;54673;52.262;6.830;2023-06-26T12:04:41;27.00;37.90
67870;DHT22;54673;52.262;6.830;2023-06-26T12:07:08;27.10;38.00
67870;DHT22;54673;52.262;6.830;2023-06-26T12:09:46;27.10;38.30
67870;DHT22;54673;52.262;6.830;2023-06-26T12:12:15;27.60;38.50
67870;DHT22;54673;52.262;6.830;2023-06-26T12:14:41;27.10;37.90
67870;DHT22;54673;52.262;6.830;2023-06-26T12:17:11;27.00;37.90
67870;DHT22;54673;52.262;6.830;2023-06-26T12:19:45;27.00;37.90
67870;DHT22;54673;52.262;6.830;2023-06-26T12:22:13;27.00;37.70
67870;DHT22;54673;52.262;6.830;2023-06-26T12:24:39;26.90;37.60
67870;DHT22;54673;52.262;6.830;2023-06-26T12:27:12;27.00;37.80
67870;DHT22;54673;52.262;6.830;2023-06-26T12:29:40;26.90;37.60
67870;DHT22;54673;52.262;6.830;2023-06-26T12:32:10;27.00;37.60
67870;DHT22;54673;52.262;6.830;2023-06-26T12:34:37;27.00;37.60
67870;DHT22;54673;52.262;6.830;2023-06-26T12:37:06;26.90;37.30
67870;DHT22;54673;52.262;6.830;2023-06-26T12:39:53;26.90;37.10
67870;DHT22;54673;52.262;6.830;2023-06-26T12:44:45;26.80;36.50
67870;DHT22;54673;52.262;6.830;2023-06-26T12:47:12;26.70;36.60
67870;DHT22;54673;52.262;6.830;2023-06-26T12:49:41;26.70;36.80
67870;DHT22;54673;52.262;6.830;2023-06-26T12:52:11;26.70;36.80
67870;DHT22;54673;52.262;6.830;2023-06-26T12:54:39;26.60;36.70
67870;DHT22;54673;52.262;6.830;2023-06-26T12:57:06;26.60;36.40
67870;DHT22;54673;52.262;6.830;2023-06-26T12:59:33;26.60;35.90
67870;DHT22;54673;52.262;6.830;2023-06-26T13:01:59;26.50;35.70
67870;DHT22;54673;52.262;6.830;2023-06-26T13:04:25;26.50;35.80
67870;DHT22;54673;52.262;6.830;2023-06-26T13:06:51;26.50;35.80
67870;DHT22;54673;52.262;6.830;2023-06-26T13:09:20;26.50;35.70
67870;DHT22;54673;52.262;6.830;2023-06-26T13:11:45;26.50;35.50
67870;DHT22;54673;52.262;6.830;2023-06-26T13:14:11;26.40;35.50
67870;DHT22;54673;52.262;6.830;2023-06-26T13:16:37;26.40;35.30
67870;DHT22;54673;52.262;6.830;2023-06-26T13:19:03;26.40;35.30
67870;DHT22;54673;52.262;6.830;2023-06-26T13:21:29;26.40;35.10
67870;DHT22;54673;52.262;6.830;2023-06-26T13:23:55;26.30;34.90
67870;DHT22;54673;52.262;6.830;2023-06-26T13:26:22;26.30;34.70
67870;DHT22;54673;52.262;6.830;2023-06-26T13:28:48;26.30;34.50
67870;DHT22;54673;52.262;6.830;2023-06-26T13:31:14;26.30;34.10
67870;DHT22;54673;52.262;6.830;2023-06-26T13:33:40;26.30;34.20
67870;DHT22;54673;52.262;6.830;2023-06-26T13:36:05;26.30;34.30
67870;DHT22;54673;52.262;6.830;2023-06-26T13:38:33;26.20;34.40
67870;DHT22;54673;52.262;6.830;2023-06-26T13:40:59;26.20;34.50
67870;DHT22;54673;52.262;6.830;2023-06-26T13:43:26;26.30;34.80
67870;DHT22;54673;52.262;6.830;2023-06-26T13:45:52;26.30;34.90
67870;DHT22;54673;52.262;6.830;2023-06-26T13:48:18;26.30;35.10
67870;DHT22;54673;52.262;6.830;2023-06-26T13:50:44;26.30;35.00
67870;DHT22;54673;52.262;6.830;2023-06-26T13:53:10;26.30;34.80
67870;DHT22;54673;52.262;6.830;2023-06-26T13:55:36;26.30;34.30
67870;DHT22;54673;52.262;6.830;2023-06-26T13:58:06;26.20;34.30
67870;DHT22;54673;52.262;6.830;2023-06-26T14:00:36;26.20;34.30
67870;DHT22;54673;52.262;6.830;2023-06-26T14:03:05;26.20;34.30
67870;DHT22;54673;52.262;6.830;2023-06-26T14:05:35;26.10;34.00
67870;DHT22;54673;52.262;6.830;2023-06-26T14:08:03;26.10;34.00
67870;DHT22;54673;52.262;6.830;2023-06-26T14:10:30;26.20;33.90
67870;DHT22;54673;52.262;6.830;2023-06-26T14:12:56;26.20;34.00
67870;DHT22;54673;52.262;6.830;2023-06-26T14:15:22;26.20;33.70
67870;DHT22;54673;52.262;6.830;2023-06-26T14:17:47;26.20;33.40
67870;DHT22;54673;52.262;6.830;2023-06-26T14:20:13;26.20;33.40
67870;DHT22;54673;52.262;6.830;2023-06-26T14:22:40;26.30;33.60
67870;DHT22;54673;52.262;6.830;2023-06-26T14:25:07;26.30;33.80
67870;DHT22;54673;52.262;6.830;2023-06-26T14:27:33;26.30;34.10
67870;DHT22;54673;52.262;6.830;2023-06-26T14:29:58;26.30;34.20
67870;DHT22;54673;52.262;6.830;2023-06-26T14:32:24;26.30;34.50
67870;DHT22;54673;52.262;6.830;2023-06-26T14:34:49;26.20;34.70
67870;DHT22;54673;52.262;6.830;2023-06-26T14:37:15;26.20;34.90
67870;DHT22;54673;52.262;6.830;2023-06-26T14:39:41;26.10;34.80
67870;DHT22;54673;52.262;6.830;2023-06-26T14:42:07;26.20;35.10
67870;DHT22;54673;52.262;6.830;2023-06-26T14:44:33;26.20;34.90
67870;DHT22;54673;52.262;6.830;2023-06-26T14:46:58;26.20;34.90
67870;DHT22;54673;52.262;6.830;2023-06-26T14:49:24;26.20;34.60
67870;DHT22;54673;52.262;6.830;2023-06-26T14:51:49;26.20;34.40
67870;DHT22;54673;52.262;6.830;2023-06-26T14:54:15;26.10;34.40
67870;DHT22;54673;52.262;6.830;2023-06-26T14:56:40;26.10;34.30
67870;DHT22;54673;52.262;6.830;2023-06-26T14:59:06;26.00;34.10
67870;DHT22;54673;52.262;6.830;2023-06-26T15:01:33;26.10;33.90
67870;DHT22;54673;52.262;6.830;2023-06-26T15:03:59;26.10;33.70
67870;DHT22;54673;52.262;6.830;2023-06-26T15:06:24;26.20;33.60
67870;DHT22;54673;52.262;6.830;2023-06-26T15:08:50;26.20;33.50
67870;DHT22;54673;52.262;6.830;2023-06-26T15:11:17;26.30;33.60
67870;DHT22;54673;52.262;6.830;2023-06-26T15:13:42;26.40;33.70
67870;DHT22;54673;52.262;6.830;2023-06-26T15:16:08;26.30;33.80
67870;DHT22;54673;52.262;6.830;2023-06-26T15:18:33;26.20;34.20
67870;DHT22;54673;52.262;6.830;2023-06-26T15:20:59;26.20;34.30
67870;DHT22;54673;52.262;6.830;2023-06-26T15:23:24;26.20;34.50
67870;DHT22;54673;52.262;6.830;2023-06-26T15:25:52;26.30;34.70
67870;DHT22;54673;52.262;6.830;2023-06-26T15:28:18;26.20;34.80
67870;DHT22;54673;52.262;6.830;2023-06-26T15:30:43;26.10;34.90
67870;DHT22;54673;52.262;6.830;2023-06-26T15:33:09;26.20;35.10
67870;DHT22;54673;52.262;6.830;2023-06-26T15:35:34;26.20;35.10
67870;DHT22;54673;52.262;6.830;2023-06-26T15:38:00;26.20;35.00
67870;DHT22;54673;52.262;6.830;2023-06-26T15:40:25;26.20;34.70
67870;DHT22;54673;52.262;6.830;2023-06-26T15:42:51;26.10;34.70
67870;DHT22;54673;52.262;6.830;2023-06-26T15:45:20;26.10;34.60